Time;durP1;ratioP1;P1;durP2;ratioP2;P2;SDS_P1;SDS_P2;PMS_P1;PMS_P2;Temp;Humidity;BMP_temperature;BMP_pressure;BME280_temperature;BME280_humidity;BME280_pressure;Samples;Min_cycle;Max_cycle;Signal;HPM_P1;HPM_P2
2022/04/14 00:01:08;;;;;;;288.13;57.03;;;;;;;;;;4988278;28;20022;-70
2022/04/14 00:03:34;;;;;;;316.73;58.20;;;;;;;;;;4984947;28;20280;-69
2022/04/14 00:05:59;;;;;;;248.90;58.23;;;;;;;;;;4982515;28;20778;-69
2022/04/14 00:08:24;;;;;;;275.38;59.33;;;;;;;;;;4987335;28;20283;-70
2022/04/14 00:10:49;;;;;;;367.25;62.40;;;;;;;;;;4982974;28;20030;-69
2022/04/14 00:13:14;;;;;;;523.23;63.03;;;;;;;;;;4985164;28;20089;-69
2022/04/14 00:15:39;;;;;;;284.77;59.77;;;;;;;;;;4981834;28;20268;-69
2022/04/14 00:18:05;;;;;;;257.17;59.15;;;;;;;;;;4980895;28;20257;-69
2022/04/14 00:20:30;;;;;;;383.80;62.78;;;;;;;;;;4981999;28;20037;-69
2022/04/14 00:22:55;;;;;;;283.70;60.55;;;;;;;;;;4978889;28;20445;-69
2022/04/14 00:25:20;;;;;;;407.63;66.45;;;;;;;;;;4993580;28;20095;-69
2022/04/14 00:27:45;;;;;;;349.33;63.65;;;;;;;;;;4983446;28;20018;-69
2022/04/14 00:30:12;;;;;;;487.33;65.93;;;;;;;;;;4986996;28;20535;-69
2022/04/14 00:32:37;;;;;;;266.95;59.63;;;;;;;;;;4989149;28;20018;-69
2022/04/14 00:35:03;;;;;;;346.40;60.22;;;;;;;;;;4985744;28;20033;-70
2022/04/14 00:37:28;;;;;;;267.58;58.05;;;;;;;;;;4986007;28;20022;-69
2022/04/14 00:39:53;;;;;;;263.80;62.45;;;;;;;;;;4987330;28;20530;-69
2022/04/14 00:42:18;;;;;;;379.63;59.17;;;;;;;;;;4990611;28;20599;-69
2022/04/14 00:44:43;;;;;;;412.17;63.43;;;;;;;;;;4990900;28;20026;-69
2022/04/14 00:47:10;;;;;;;385.92;62.92;;;;;;;;;;4980774;28;20832;-69
2022/04/14 00:49:35;;;;;;;397.02;56.78;;;;;;;;;;4993567;28;20313;-69
2022/04/14 00:52:01;;;;;;;350.30;58.25;;;;;;;;;;4974856;28;20043;-69
2022/04/14 00:54:26;;;;;;;568.78;65.85;;;;;;;;;;4982583;28;20476;-69
2022/04/14 00:56:51;;;;;;;509.63;52.28;;;;;;;;;;4986957;28;20113;-69
2022/04/14 00:59:17;;;;;;;503.57;53.40;;;;;;;;;;4978203;28;20030;-69
2022/04/14 01:01:42;;;;;;;254.15;46.53;;;;;;;;;;4990221;28;20338;-69
2022/04/14 01:04:08;;;;;;;355.85;54.08;;;;;;;;;;4984516;28;20343;-69
2022/04/14 01:06:33;;;;;;;342.10;53.35;;;;;;;;;;4985757;28;20034;-69
2022/04/14 01:09:19;;;;;;;277.50;54.53;;;;;;;;;;4983121;28;20046;-69
2022/04/14 01:11:45;;;;;;;307.23;47.75;;;;;;;;;;4989946;28;20085;-69
2022/04/14 01:14:21;;;;;;;430.73;53.95;;;;;;;;;;4989773;28;20817;-69
2022/04/14 01:16:46;;;;;;;393.45;57.58;;;;;;;;;;4983299;28;20039;-69
2022/04/14 01:19:11;;;;;;;348.23;48.43;;;;;;;;;;4978993;28;20358;-69
2022/04/14 01:21:39;;;;;;;267.03;48.10;;;;;;;;;;4982942;28;20399;-69
2022/04/14 01:24:04;;;;;;;211.80;46.97;;;;;;;;;;4983463;28;20292;-69
2022/04/14 01:26:30;;;;;;;252.50;49.08;;;;;;;;;;4978626;28;20041;-69
2022/04/14 01:28:56;;;;;;;230.43;48.65;;;;;;;;;;4989401;28;20116;-69
2022/04/14 01:31:21;;;;;;;373.63;59.80;;;;;;;;;;4987924;28;20380;-69
2022/04/14 01:33:46;;;;;;;414.67;57.00;;;;;;;;;;4985224;28;20080;-69
2022/04/14 01:36:11;;;;;;;572.50;61.70;;;;;;;;;;4982812;28;20073;-69
2022/04/14 01:38:38;;;;;;;296.35;51.13;;;;;;;;;;4982260;28;20030;-69
2022/04/14 01:41:03;;;;;;;406.27;62.30;;;;;;;;;;4987031;28;20030;-70
2022/04/14 01:43:28;;;;;;;420.63;57.90;;;;;;;;;;4980279;28;20026;-69
2022/04/14 01:45:54;;;;;;;365.88;54.95;;;;;;;;;;4978388;28;20034;-69
2022/04/14 01:48:19;;;;;;;324.80;57.50;;;;;;;;;;4975145;28;20381;-69
2022/04/14 01:50:44;;;;;;;247.02;54.38;;;;;;;;;;4984833;28;20311;-70
2022/04/14 01:53:09;;;;;;;377.45;55.92;;;;;;;;;;4982176;28;20026;-69
2022/04/14 01:55:34;;;;;;;405.33;58.28;;;;;;;;;;4981125;28;20045;-69
2022/04/14 01:58:00;;;;;;;335.00;58.10;;;;;;;;;;4983912;28;20049;-69
2022/04/14 02:00:25;;;;;;;396.57;60.60;;;;;;;;;;4982573;28;20216;-69
2022/04/14 02:02:50;;;;;;;423.10;62.03;;;;;;;;;;4981171;28;20685;-69
2022/04/14 02:05:15;;;;;;;256.02;54.20;;;;;;;;;;4986066;28;20034;-69
2022/04/14 02:07:40;;;;;;;438.58;60.38;;;;;;;;;;4979615;28;20176;-69
2022/04/14 02:10:06;;;;;;;331.70;57.20;;;;;;;;;;4982083;28;20026;-69
2022/04/14 02:12:32;;;;;;;485.55;64.03;;;;;;;;;;4985914;28;20382;-69
2022/04/14 02:14:57;;;;;;;476.85;62.15;;;;;;;;;;4980895;28;20030;-69
2022/04/14 02:17:22;;;;;;;325.57;52.00;;;;;;;;;;4981443;28;20088;-69
2022/04/14 02:19:47;;;;;;;238.32;55.95;;;;;;;;;;4979434;28;20299;-69
2022/04/14 02:22:13;;;;;;;288.23;58.72;;;;;;;;;;4984230;28;20034;-69
2022/04/14 02:24:38;;;;;;;356.02;58.88;;;;;;;;;;4982138;28;20049;-69
2022/04/14 02:27:04;;;;;;;568.23;67.77;;;;;;;;;;4980895;28;20026;-69
2022/04/14 02:29:29;;;;;;;557.92;74.90;;;;;;;;;;4980504;28;20272;-69
2022/04/14 02:31:57;;;;;;;460.40;68.20;;;;;;;;;;4980251;28;20370;-69
2022/04/14 02:34:22;;;;;;;347.23;65.95;;;;;;;;;;5000039;28;20033;-69
2022/04/14 02:36:47;;;;;;;595.15;76.47;;;;;;;;;;4982080;28;20380;-69
2022/04/14 02:39:13;;;;;;;481.05;76.18;;;;;;;;;;4987703;28;20026;-70
2022/04/14 02:41:38;;;;;;;712.00;81.07;;;;;;;;;;4986773;28;20064;-70
2022/04/14 02:44:03;;;;;;;345.98;64.60;;;;;;;;;;4983094;28;20141;-70
2022/04/14 02:46:29;;;;;;;333.80;64.03;;;;;;;;;;4991408;28;20448;-69
2022/04/14 02:48:54;;;;;;;300.25;60.15;;;;;;;;;;4989251;28;20034;-70
2022/04/14 02:51:19;;;;;;;247.70;57.80;;;;;;;;;;4981268;28;20050;-70
2022/04/14 02:53:44;;;;;;;291.35;60.00;;;;;;;;;;4976618;28;20328;-70
2022/04/14 02:56:10;;;;;;;267.65;55.75;;;;;;;;;;4982014;28;20031;-70
2022/04/14 02:58:37;;;;;;;298.27;60.70;;;;;;;;;;4983596;28;20038;-69
2022/04/14 03:01:02;;;;;;;244.13;57.92;;;;;;;;;;4981109;28;20030;-69
2022/04/14 03:03:28;;;;;;;309.75;57.75;;;;;;;;;;4989054;28;20029;-69
2022/04/14 03:05:53;;;;;;;451.15;62.33;;;;;;;;;;4978820;28;20029;-69
2022/04/14 03:08:19;;;;;;;540.07;66.03;;;;;;;;;;4985114;28;20033;-69
2022/04/14 03:10:44;;;;;;;421.50;61.42;;;;;;;;;;4985955;28;20816;-69
2022/04/14 03:13:09;;;;;;;474.20;59.22;;;;;;;;;;4981416;28;20023;-69
2022/04/14 03:15:34;;;;;;;380.50;53.33;;;;;;;;;;4976507;28;20528;-69
2022/04/14 03:17:59;;;;;;;340.50;53.75;;;;;;;;;;4975906;28;20146;-69
2022/04/14 03:20:24;;;;;;;413.10;56.97;;;;;;;;;;4984346;28;20030;-69
2022/04/14 03:22:50;;;;;;;372.17;56.20;;;;;;;;;;4976863;28;20284;-69
2022/04/14 03:25:15;;;;;;;265.50;50.47;;;;;;;;;;4984318;28;20039;-70
2022/04/14 03:27:40;;;;;;;224.02;49.47;;;;;;;;;;4985908;28;20018;-69
2022/04/14 03:30:07;;;;;;;318.00;54.78;;;;;;;;;;4982544;28;20098;-69
2022/04/14 03:32:32;;;;;;;226.27;51.63;;;;;;;;;;4983891;28;20030;-69
2022/04/14 03:35:02;;;;;;;244.88;50.67;;;;;;;;;;4984379;28;20030;-69
2022/04/14 03:37:27;;;;;;;219.88;49.13;;;;;;;;;;4982925;28;20029;-70
2022/04/14 03:39:52;;;;;;;294.83;50.38;;;;;;;;;;4983294;28;20116;-70
2022/04/14 03:42:18;;;;;;;479.13;59.47;;;;;;;;;;4980702;28;20030;-69
2022/04/14 03:44:43;;;;;;;358.50;53.50;;;;;;;;;;4981538;28;20034;-69
2022/04/14 03:47:08;;;;;;;393.42;56.25;;;;;;;;;;4985431;28;20304;-69
2022/04/14 03:49:34;;;;;;;283.25;52.60;;;;;;;;;;4982662;28;20025;-70
2022/04/14 03:51:59;;;;;;;284.93;50.90;;;;;;;;;;4983316;28;20050;-70
2022/04/14 03:54:24;;;;;;;330.70;53.22;;;;;;;;;;4980201;28;20635;-70
2022/04/14 03:56:49;;;;;;;297.83;55.30;;;;;;;;;;4978498;28;20117;-69
2022/04/14 03:59:15;;;;;;;255.43;54.38;;;;;;;;;;4981993;28;20135;-70
2022/04/14 04:01:40;;;;;;;245.68;52.42;;;;;;;;;;4985791;28;20026;-69
2022/04/14 04:04:05;;;;;;;437.20;59.53;;;;;;;;;;4979854;28;20045;-70
2022/04/14 04:06:31;;;;;;;401.33;55.70;;;;;;;;;;4994768;28;20030;-70
2022/04/14 04:08:56;;;;;;;493.27;58.83;;;;;;;;;;4983276;28;20034;-69
2022/04/14 04:11:21;;;;;;;443.30;59.00;;;;;;;;;;4978943;28;20113;-69
2022/04/14 04:13:46;;;;;;;397.77;53.20;;;;;;;;;;4980275;28;20269;-69
2022/04/14 04:16:11;;;;;;;564.08;68.25;;;;;;;;;;4980824;28;20118;-70
2022/04/14 04:18:36;;;;;;;377.00;55.53;;;;;;;;;;4979377;28;20046;-69
2022/04/14 04:21:02;;;;;;;195.98;49.10;;;;;;;;;;4994093;28;20269;-69
2022/04/14 04:23:27;;;;;;;333.40;55.63;;;;;;;;;;4988174;28;20462;-69
2022/04/14 04:25:52;;;;;;;265.27;54.77;;;;;;;;;;4991114;28;20030;-69
2022/04/14 04:28:17;;;;;;;454.55;59.78;;;;;;;;;;4980059;28;20272;-70
2022/04/14 04:30:42;;;;;;;518.22;63.45;;;;;;;;;;4994643;28;20035;-70
2022/04/14 04:33:08;;;;;;;340.88;53.97;;;;;;;;;;4983372;28;20097;-69
2022/04/14 04:35:33;;;;;;;401.30;57.90;;;;;;;;;;4984579;28;20084;-70
2022/04/14 04:37:58;;;;;;;437.20;65.53;;;;;;;;;;4986782;28;20779;-69
2022/04/14 04:40:23;;;;;;;433.53;58.83;;;;;;;;;;4980263;28;20027;-70
2022/04/14 04:42:48;;;;;;;307.73;51.67;;;;;;;;;;4979977;28;20631;-69
2022/04/14 04:45:14;;;;;;;505.03;69.67;;;;;;;;;;4991356;28;20310;-69
2022/04/14 04:47:39;;;;;;;459.60;60.97;;;;;;;;;;4985733;28;20330;-69
2022/04/14 04:50:07;;;;;;;523.55;62.45;;;;;;;;;;4996866;28;20122;-70
2022/04/14 04:52:33;;;;;;;395.17;52.80;;;;;;;;;;4987002;28;20026;-70
2022/04/14 04:54:58;;;;;;;395.55;58.17;;;;;;;;;;4978354;28;20465;-69
2022/04/14 04:57:23;;;;;;;455.23;63.70;;;;;;;;;;4987166;28;20022;-69
2022/04/14 04:59:48;;;;;;;378.25;54.33;;;;;;;;;;4990488;28;20053;-69
2022/04/14 05:02:13;;;;;;;377.42;53.80;;;;;;;;;;4981061;28;20054;-70
2022/04/14 05:04:38;;;;;;;488.95;62.38;;;;;;;;;;4986401;28;20564;-69
2022/04/14 05:07:04;;;;;;;511.40;61.50;;;;;;;;;;4993800;28;20026;-74
2022/04/14 05:09:29;;;;;;;449.38;60.30;;;;;;;;;;4984916;28;20080;-69
2022/04/14 05:11:54;;;;;;;549.17;60.60;;;;;;;;;;4989343;28;20445;-71
2022/04/14 05:14:19;;;;;;;495.37;59.43;;;;;;;;;;4982212;28;20046;-71
2022/04/14 05:16:44;;;;;;;436.25;58.75;;;;;;;;;;4983922;28;20833;-70
2022/04/14 05:19:10;;;;;;;436.80;60.87;;;;;;;;;;4984385;28;20030;-69
2022/04/14 05:21:36;;;;;;;450.83;59.40;;;;;;;;;;4985779;28;20278;-69
2022/04/14 05:24:01;;;;;;;489.25;61.17;;;;;;;;;;4986107;28;20031;-70
2022/04/14 05:26:26;;;;;;;416.03;60.47;;;;;;;;;;4983211;28;20026;-70
2022/04/14 05:28:51;;;;;;;429.93;55.77;;;;;;;;;;4983916;28;20286;-72
2022/04/14 05:31:16;;;;;;;508.47;59.07;;;;;;;;;;4986894;28;20299;-68
2022/04/14 05:33:41;;;;;;;490.88;62.45;;;;;;;;;;4994183;28;20267;-68
2022/04/14 05:36:07;;;;;;;442.75;57.38;;;;;;;;;;4987355;28;20028;-70
2022/04/14 05:38:32;;;;;;;523.10;63.15;;;;;;;;;;4996382;28;20049;-70
2022/04/14 05:40:57;;;;;;;472.77;59.20;;;;;;;;;;4990398;28;20508;-70
2022/04/14 05:43:28;;;;;;;426.13;59.88;;;;;;;;;;4986348;28;20433;-71
2022/04/14 05:45:54;;;;;;;427.70;57.10;;;;;;;;;;4994307;28;20026;-70
2022/04/14 05:48:19;;;;;;;446.52;57.58;;;;;;;;;;4986531;28;20033;-70
2022/04/14 05:50:45;;;;;;;329.73;51.72;;;;;;;;;;4985911;28;20026;-70
2022/04/14 05:53:10;;;;;;;287.17;53.67;;;;;;;;;;4984516;28;20065;-70
2022/04/14 05:55:35;;;;;;;360.92;54.85;;;;;;;;;;4981966;28;20117;-70
2022/04/14 05:58:01;;;;;;;330.05;51.80;;;;;;;;;;4984024;28;20030;-71
2022/04/14 06:00:27;;;;;;;284.42;50.85;;;;;;;;;;4986801;28;20053;-72
2022/04/14 06:02:52;;;;;;;321.33;53.07;;;;;;;;;;4993946;28;20365;-73
2022/04/14 06:05:17;;;;;;;404.48;61.58;;;;;;;;;;4985883;28;20287;-74
2022/04/14 06:07:42;;;;;;;322.13;54.33;;;;;;;;;;4987252;28;20495;-71
2022/04/14 06:10:07;;;;;;;271.92;52.38;;;;;;;;;;4979121;28;20464;-71
2022/04/14 06:12:33;;;;;;;269.75;55.35;;;;;;;;;;4987001;28;20029;-71
2022/04/14 06:14:58;;;;;;;307.20;58.63;;;;;;;;;;4990795;28;20357;-70
2022/04/14 06:17:23;;;;;;;336.17;60.85;;;;;;;;;;4981659;28;20282;-70
2022/04/14 06:19:48;;;;;;;291.35;58.80;;;;;;;;;;4976800;28;20034;-71
2022/04/14 06:22:13;;;;;;;280.95;59.88;;;;;;;;;;4980130;28;20444;-70
2022/04/14 06:24:39;;;;;;;244.67;55.80;;;;;;;;;;4984913;28;20030;-70
2022/04/14 06:27:05;;;;;;;250.68;56.80;;;;;;;;;;4982151;28;20712;-70
2022/04/14 06:29:30;;;;;;;230.57;56.28;;;;;;;;;;4989656;28;20038;-70
2022/04/14 06:31:56;;;;;;;273.58;59.92;;;;;;;;;;4982472;28;20026;-70
2022/04/14 06:34:21;;;;;;;269.35;60.63;;;;;;;;;;4993253;28;20157;-70
2022/04/14 06:36:46;;;;;;;258.42;59.15;;;;;;;;;;4980853;28;20042;-70
2022/04/14 06:39:12;;;;;;;233.98;53.75;;;;;;;;;;4975881;28;20026;-70
2022/04/14 06:41:38;;;;;;;247.00;56.58;;;;;;;;;;4975119;28;20045;-70
2022/04/14 06:44:03;;;;;;;251.50;62.85;;;;;;;;;;4974719;28;20473;-69
2022/04/14 06:46:29;;;;;;;243.52;64.55;;;;;;;;;;4985487;28;20101;-71
2022/04/14 06:48:55;;;;;;;269.23;65.75;;;;;;;;;;4976536;28;20018;-71
2022/04/14 06:51:20;;;;;;;246.45;61.47;;;;;;;;;;4981736;28;20026;-71
2022/04/14 06:53:48;;;;;;;272.00;66.75;;;;;;;;;;4982305;28;20519;-70
2022/04/14 06:56:13;;;;;;;267.05;68.15;;;;;;;;;;4987202;28;20072;-71
2022/04/14 06:58:38;;;;;;;278.03;66.20;;;;;;;;;;4978377;28;20030;-70
2022/04/14 07:01:03;;;;;;;200.30;56.42;;;;;;;;;;4980026;28;20610;-70
2022/04/14 07:03:29;;;;;;;155.35;47.85;;;;;;;;;;4984150;28;20037;-70
2022/04/14 07:05:56;;;;;;;169.63;52.10;;;;;;;;;;4990538;28;20022;-70
2022/04/14 07:08:21;;;;;;;143.15;47.13;;;;;;;;;;4983552;28;20026;-70
2022/04/14 07:10:47;;;;;;;158.27;49.15;;;;;;;;;;4984623;28;20049;-70
2022/04/14 07:13:12;;;;;;;152.50;48.57;;;;;;;;;;4983566;28;20054;-69
2022/04/14 07:15:37;;;;;;;136.32;46.08;;;;;;;;;;4990285;28;20299;-70
2022/04/14 07:18:02;;;;;;;124.13;42.33;;;;;;;;;;4989754;28;20461;-70
2022/04/14 07:20:30;;;;;;;110.25;40.40;;;;;;;;;;4986512;28;20392;-70
2022/04/14 07:22:55;;;;;;;104.43;37.15;;;;;;;;;;4999050;28;20248;-70
2022/04/14 07:25:21;;;;;;;95.37;34.80;;;;;;;;;;4982375;28;20092;-70
2022/04/14 07:27:46;;;;;;;90.22;34.28;;;;;;;;;;4984552;28;20276;-71
2022/04/14 07:30:12;;;;;;;85.10;33.35;;;;;;;;;;4984913;28;20035;-71
2022/04/14 07:32:39;;;;;;;78.80;32.80;;;;;;;;;;4976151;28;20033;-71
2022/04/14 07:35:04;;;;;;;87.22;35.00;;;;;;;;;;4980000;28;20489;-71
2022/04/14 07:37:30;;;;;;;78.45;33.80;;;;;;;;;;4972506;28;20358;-71
2022/04/14 07:39:55;;;;;;;79.10;32.50;;;;;;;;;;4983064;28;20073;-72
2022/04/14 07:42:20;;;;;;;77.50;31.98;;;;;;;;;;4977915;28;20107;-72
2022/04/14 07:44:46;;;;;;;74.63;33.08;;;;;;;;;;4996844;28;20073;-71
2022/04/14 07:47:11;;;;;;;72.22;31.02;;;;;;;;;;4978420;28;20022;-71
2022/04/14 07:49:36;;;;;;;76.10;32.28;;;;;;;;;;4985788;28;20117;-71
2022/04/14 07:52:02;;;;;;;75.07;30.30;;;;;;;;;;4988762;28;20022;-72
2022/04/14 07:54:28;;;;;;;74.30;31.42;;;;;;;;;;5002959;28;20029;-71
2022/04/14 07:56:53;;;;;;;72.28;31.63;;;;;;;;;;4983421;28;20026;-71
2022/04/14 07:59:18;;;;;;;72.30;32.30;;;;;;;;;;4983929;28;20034;-71
2022/04/14 08:01:44;;;;;;;68.90;30.27;;;;;;;;;;4988637;28;20030;-71
2022/04/14 08:04:09;;;;;;;70.15;30.30;;;;;;;;;;4989904;28;20474;-71
2022/04/14 08:06:35;;;;;;;71.05;30.13;;;;;;;;;;4992443;28;21614;-72
2022/04/14 08:09:04;;;;;;;69.30;27.75;;;;;;;;;;4982637;28;20018;-72
2022/04/14 08:11:29;;;;;;;75.72;31.27;;;;;;;;;;4989616;28;20022;-71
2022/04/14 08:13:55;;;;;;;73.70;31.88;;;;;;;;;;4999584;28;20028;-72
2022/04/14 08:16:21;;;;;;;64.47;29.88;;;;;;;;;;4990894;28;20034;-72
2022/04/14 08:18:46;;;;;;;68.63;30.20;;;;;;;;;;5003006;28;20030;-71
2022/04/14 08:21:11;;;;;;;64.88;29.63;;;;;;;;;;4993884;28;20034;-71
2022/04/14 08:23:39;;;;;;;79.80;30.30;;;;;;;;;;4993462;28;20026;-71
2022/04/14 08:26:04;;;;;;;62.13;29.00;;;;;;;;;;4990354;28;20697;-71
2022/04/14 08:28:30;;;;;;;61.25;28.35;;;;;;;;;;4997022;28;20075;-71
2022/04/14 08:30:56;;;;;;;62.65;25.88;;;;;;;;;;4995767;28;20033;-71
2022/04/14 08:33:23;;;;;;;62.72;26.15;;;;;;;;;;4992643;28;20026;-72
2022/04/14 08:35:49;;;;;;;54.83;25.02;;;;;;;;;;4990611;28;20026;-72
2022/04/14 08:38:15;;;;;;;48.95;22.90;;;;;;;;;;4985169;28;20030;-71
2022/04/14 08:40:41;;;;;;;55.83;26.38;;;;;;;;;;4995036;28;20030;-72
2022/04/14 08:43:07;;;;;;;57.25;24.40;;;;;;;;;;5000004;28;20037;-72
2022/04/14 08:45:34;;;;;;;56.20;25.58;;;;;;;;;;4989911;28;20414;-72
2022/04/14 08:48:00;;;;;;;50.55;24.27;;;;;;;;;;5000086;28;20052;-72
2022/04/14 08:50:25;;;;;;;50.45;23.38;;;;;;;;;;4991633;28;20468;-71
2022/04/14 08:52:51;;;;;;;49.55;22.13;;;;;;;;;;4990669;28;20029;-71
2022/04/14 08:55:16;;;;;;;49.38;22.20;;;;;;;;;;4984776;28;20049;-71
2022/04/14 08:57:42;;;;;;;55.08;22.95;;;;;;;;;;4973847;28;20419;-72
2022/04/14 09:00:09;;;;;;;47.35;21.52;;;;;;;;;;4967041;28;20062;-71
2022/04/14 09:02:34;;;;;;;47.58;20.90;;;;;;;;;;4968210;28;20034;-72
2022/04/14 09:05:00;;;;;;;38.58;16.08;;;;;;;;;;4971473;28;20076;-71
2022/04/14 09:07:25;;;;;;;36.88;17.83;;;;;;;;;;4978825;28;20056;-71
2022/04/14 09:09:50;;;;;;;33.17;14.88;;;;;;;;;;4981718;28;20061;-72
2022/04/14 09:12:16;;;;;;;29.38;12.52;;;;;;;;;;4990003;28;20100;-75
2022/04/14 09:14:41;;;;;;;23.58;12.70;;;;;;;;;;4987196;28;20015;-72
2022/04/14 09:17:07;;;;;;;31.00;14.83;;;;;;;;;;4988313;28;20033;-73
2022/04/14 09:19:33;;;;;;;32.17;14.20;;;;;;;;;;4987105;28;20484;-73
2022/04/14 09:22:03;;;;;;;32.40;14.25;;;;;;;;;;4990113;28;20481;-73
2022/04/14 09:24:48;;;;;;;26.15;13.07;;;;;;;;;;4994395;28;20029;-75
2022/04/14 09:27:35;;;;;;;28.73;15.38;;;;;;;;;;4991581;28;20014;-74
2022/04/14 09:30:05;;;;;;;33.92;13.18;;;;;;;;;;4983179;28;20018;-73
2022/04/14 09:32:42;;;;;;;25.52;11.18;;;;;;;;;;4990484;28;20030;-74
2022/04/14 09:35:17;;;;;;;27.10;12.48;;;;;;;;;;4987161;28;20089;-73
2022/04/14 09:37:42;;;;;;;31.88;13.63;;;;;;;;;;4990524;28;20543;-74
2022/04/14 09:40:09;;;;;;;31.27;10.70;;;;;;;;;;4990811;28;20031;-73
2022/04/14 09:42:36;;;;;;;16.60;10.48;;;;;;;;;;4993106;28;20334;-73
2022/04/14 09:45:20;;;;;;;21.45;9.65;;;;;;;;;;4985055;28;20121;-80
2022/04/14 09:47:48;;;;;;;17.50;8.35;;;;;;;;;;4988499;28;20392;-73
2022/04/14 09:50:25;;;;;;;17.00;9.00;;;;;;;;;;4993066;28;20073;-73
2022/04/14 09:52:58;;;;;;;18.83;7.70;;;;;;;;;;4990672;28;20023;-72
2022/04/14 09:55:23;;;;;;;15.00;8.53;;;;;;;;;;4985638;28;20033;-74
2022/04/14 09:58:07;;;;;;;20.57;8.67;;;;;;;;;;4981091;28;20784;-72
2022/04/14 10:00:35;;;;;;;18.88;7.93;;;;;;;;;;4987622;28;20346;-73
2022/04/14 10:03:08;;;;;;;18.75;9.15;;;;;;;;;;4991780;28;20040;-79
2022/04/14 10:05:34;;;;;;;19.27;7.28;;;;;;;;;;4983775;28;20030;-72
2022/04/14 10:07:59;;;;;;;17.75;7.00;;;;;;;;;;4985971;28;20506;-73
2022/04/14 10:10:24;;;;;;;16.63;6.93;;;;;;;;;;4994702;28;20345;-72
2022/04/14 10:12:50;;;;;;;14.10;6.70;;;;;;;;;;4989613;28;20080;-72
2022/04/14 10:15:17;;;;;;;16.67;7.03;;;;;;;;;;4994095;28;20118;-73
2022/04/14 10:17:43;;;;;;;13.27;7.15;;;;;;;;;;5003735;28;20095;-73
2022/04/14 10:20:09;;;;;;;9.73;5.38;;;;;;;;;;4991696;28;20472;-71
2022/04/14 10:22:34;;;;;;;16.02;6.63;;;;;;;;;;4990140;28;20030;-72
2022/04/14 10:25:00;;;;;;;15.02;6.05;;;;;;;;;;4986366;28;20034;-73
2022/04/14 10:27:25;;;;;;;15.57;8.15;;;;;;;;;;4982093;28;21510;-70
2022/04/14 10:29:51;;;;;;;16.00;6.73;;;;;;;;;;4988465;28;20495;-73
2022/04/14 10:32:17;;;;;;;16.33;7.55;;;;;;;;;;4984813;28;20054;-71
2022/04/14 10:34:42;;;;;;;19.95;7.72;;;;;;;;;;4985973;28;20153;-71
2022/04/14 10:37:08;;;;;;;15.77;6.93;;;;;;;;;;4991779;28;20607;-71
2022/04/14 10:39:37;;;;;;;20.88;8.85;;;;;;;;;;4985970;28;20361;-69
2022/04/14 10:42:04;;;;;;;21.73;7.50;;;;;;;;;;4985868;28;20335;-70
2022/04/14 10:44:46;;;;;;;18.50;8.45;;;;;;;;;;4988947;28;20372;-69
2022/04/14 10:47:13;;;;;;;15.32;7.25;;;;;;;;;;4996773;28;20029;-72
2022/04/14 10:49:40;;;;;;;11.60;6.25;;;;;;;;;;4998849;28;20014;-71
2022/04/14 10:52:24;;;;;;;13.00;5.72;;;;;;;;;;4995212;28;20129;-70
2022/04/14 10:55:00;;;;;;;19.23;7.75;;;;;;;;;;4983917;28;20062;-71
2022/04/14 10:57:35;;;;;;;17.50;8.82;;;;;;;;;;4980104;28;20030;-70
2022/04/14 11:00:00;;;;;;;28.83;8.70;;;;;;;;;;4980748;28;20037;-71
2022/04/14 11:02:45;;;;;;;21.50;8.73;;;;;;;;;;4990668;28;20022;-71
2022/04/14 11:05:30;;;;;;;27.27;12.43;;;;;;;;;;4989730;28;20040;-72
2022/04/14 11:08:14;;;;;;;40.72;16.10;;;;;;;;;;4984650;28;20038;-71
2022/04/14 11:10:51;;;;;;;36.17;16.25;;;;;;;;;;4977256;28;20440;-73
2022/04/14 11:13:16;;;;;;;36.45;14.27;;;;;;;;;;4984660;28;20472;-72
2022/04/14 11:15:41;;;;;;;31.92;14.98;;;;;;;;;;4985104;28;20065;-71
2022/04/14 11:18:07;;;;;;;39.67;14.07;;;;;;;;;;4986377;28;20026;-74
2022/04/14 11:20:37;;;;;;;34.88;15.15;;;;;;;;;;4988883;28;20112;-70
2022/04/14 11:23:08;;;;;;;33.63;16.48;;;;;;;;;;4984875;28;20030;-70
2022/04/14 11:25:42;;;;;;;32.70;16.88;;;;;;;;;;4979908;28;20018;-70
2022/04/14 11:28:17;;;;;;;255.20;51.65;;;;;;;;;;4983217;28;20027;-70
2022/04/14 11:30:43;;;;;;;68.22;23.67;;;;;;;;;;4984133;28;20477;-70
2022/04/14 11:33:12;;;;;;;30.73;14.18;;;;;;;;;;4989960;28;20033;-70
2022/04/14 11:35:43;;;;;;;28.55;13.15;;;;;;;;;;4989456;28;20077;-70
2022/04/14 11:38:10;;;;;;;29.30;14.30;;;;;;;;;;4988796;28;20034;-70
2022/04/14 11:40:38;;;;;;;30.85;14.35;;;;;;;;;;4991816;28;20034;-70
2022/04/14 11:43:06;;;;;;;30.98;14.68;;;;;;;;;;4991554;28;20541;-70
2022/04/14 11:45:31;;;;;;;44.25;15.27;;;;;;;;;;4991171;28;20068;-70
2022/04/14 11:48:03;;;;;;;36.97;16.10;;;;;;;;;;4993255;28;20038;-70
2022/04/14 11:50:29;;;;;;;35.83;13.32;;;;;;;;;;4984321;28;20018;-70
2022/04/14 11:52:58;;;;;;;30.70;13.45;;;;;;;;;;4992956;28;20098;-70
2022/04/14 11:55:36;;;;;;;38.63;13.60;;;;;;;;;;4999594;28;20033;-70
2022/04/14 11:58:11;;;;;;;28.05;12.02;;;;;;;;;;4982886;28;20034;-70
2022/04/14 12:00:42;;;;;;;33.83;13.65;;;;;;;;;;4996947;28;20034;-70
2022/04/14 12:03:07;;;;;;;82.80;23.05;;;;;;;;;;5003922;28;20755;-70
2022/04/14 12:05:32;;;;;;;32.08;13.07;;;;;;;;;;4998830;28;20093;-70
2022/04/14 12:08:05;;;;;;;27.70;11.93;;;;;;;;;;4998174;28;20073;-69
2022/04/14 12:10:31;;;;;;;34.25;11.88;;;;;;;;;;4990143;28;20049;-70
2022/04/14 12:13:04;;;;;;;47.13;14.55;;;;;;;;;;4976569;28;20085;-70
2022/04/14 12:15:29;;;;;;;38.58;12.57;;;;;;;;;;4986131;28;20505;-70
2022/04/14 12:18:03;;;;;;;26.63;11.52;;;;;;;;;;4992276;28;20049;-70
2022/04/14 12:20:34;;;;;;;20.08;10.93;;;;;;;;;;4994588;28;20039;-70
2022/04/14 12:22:59;;;;;;;26.05;10.88;;;;;;;;;;4991220;28;20109;-70
2022/04/14 12:25:24;;;;;;;29.83;12.40;;;;;;;;;;4988863;28;20125;-71
2022/04/14 12:27:49;;;;;;;30.00;13.07;;;;;;;;;;4993101;28;20311;-70
2022/04/14 12:30:15;;;;;;;33.90;12.85;;;;;;;;;;4991720;28;20350;-70
2022/04/14 12:32:42;;;;;;;22.80;9.95;;;;;;;;;;4995198;28;20065;-70
2022/04/14 12:35:09;;;;;;;28.00;9.95;;;;;;;;;;4996129;28;20022;-70
2022/04/14 12:37:34;;;;;;;15.95;7.78;;;;;;;;;;4985492;28;20042;-71
2022/04/14 12:40:01;;;;;;;24.42;10.30;;;;;;;;;;4992653;28;20030;-70
2022/04/14 12:42:32;;;;;;;14.95;7.45;;;;;;;;;;4986070;28;20322;-70
2022/04/14 12:45:04;;;;;;;26.15;10.55;;;;;;;;;;4984443;28;20085;-70
2022/04/14 12:47:30;;;;;;;31.20;13.45;;;;;;;;;;4988506;28;20469;-70
2022/04/14 12:49:56;;;;;;;26.45;12.75;;;;;;;;;;4986398;28;20025;-70
2022/04/14 12:52:21;;;;;;;31.60;13.60;;;;;;;;;;4992091;28;20022;-70
2022/04/14 12:54:46;;;;;;;38.40;15.13;;;;;;;;;;4987702;28;20454;-69
2022/04/14 12:57:17;;;;;;;30.70;16.10;;;;;;;;;;4983762;28;20029;-69
2022/04/14 12:59:58;;;;;;;27.55;14.80;;;;;;;;;;4988107;28;20030;-70
2022/04/14 13:02:23;;;;;;;20.70;12.40;;;;;;;;;;4990771;28;20101;-69
2022/04/14 13:04:49;;;;;;;14.65;9.57;;;;;;;;;;4986444;28;20477;-70
2022/04/14 13:07:15;;;;;;;17.53;10.40;;;;;;;;;;4988343;28;20115;-69
2022/04/14 13:09:56;;;;;;;20.75;8.40;;;;;;;;;;4984276;28;20078;-72
2022/04/14 13:12:36;;;;;;;17.52;8.60;;;;;;;;;;4987050;28;20022;-76
2022/04/14 13:15:02;;;;;;;19.98;9.48;;;;;;;;;;4993440;28;20026;-78
2022/04/14 13:17:27;;;;;;;23.88;10.57;;;;;;;;;;4984378;28;20597;-76
2022/04/14 13:19:52;;;;;;;19.30;12.00;;;;;;;;;;4988166;28;20038;-76
2022/04/14 13:22:17;;;;;;;21.45;11.90;;;;;;;;;;4987004;28;20029;-74
2022/04/14 13:24:42;;;;;;;21.77;10.03;;;;;;;;;;4986940;28;20532;-77
2022/04/14 13:27:08;;;;;;;17.80;8.05;;;;;;;;;;4982433;28;20921;-77
2022/04/14 13:29:33;;;;;;;15.93;7.65;;;;;;;;;;4988154;28;20522;-79
2022/04/14 13:31:58;;;;;;;13.93;7.20;;;;;;;;;;4984370;28;20381;-77
2022/04/14 13:34:23;;;;;;;15.80;8.70;;;;;;;;;;4993700;28;20088;-78
2022/04/14 13:36:54;;;;;;;15.68;9.18;;;;;;;;;;4983769;28;20030;-78
2022/04/14 13:39:19;;;;;;;15.90;7.00;;;;;;;;;;4984363;28;20085;-79
2022/04/14 13:41:44;;;;;;;11.67;5.87;;;;;;;;;;4985937;28;20022;-76
2022/04/14 13:44:10;;;;;;;14.90;6.95;;;;;;;;;;4986410;28;20042;-77
2022/04/14 13:46:35;;;;;;;13.47;6.63;;;;;;;;;;4980042;28;20472;-74
2022/04/14 13:49:00;;;;;;;18.73;8.53;;;;;;;;;;4981670;28;20014;-78
2022/04/14 13:51:25;;;;;;;17.90;8.43;;;;;;;;;;4989422;28;20538;-75
2022/04/14 13:53:50;;;;;;;20.95;8.55;;;;;;;;;;4982726;28;20026;-75
2022/04/14 13:56:15;;;;;;;23.83;10.80;;;;;;;;;;4989409;28;20037;-75
2022/04/14 13:58:41;;;;;;;20.02;10.43;;;;;;;;;;4981654;28;20166;-75
2022/04/14 14:01:06;;;;;;;21.37;11.87;;;;;;;;;;4986407;28;20113;-74
2022/04/14 14:03:32;;;;;;;19.08;10.52;;;;;;;;;;4989619;28;20611;-75
2022/04/14 14:06:00;;;;;;;27.67;13.57;;;;;;;;;;4980136;28;20489;-75
2022/04/14 14:08:26;;;;;;;27.60;14.05;;;;;;;;;;4988480;28;20034;-74